sensor_id;sensor_type;location;lat;lon;timestamp;temperature;humidity
2929;DHT22;1474;51.460;7.150;2023-09-12T03:43:50;20.70;84.60
2929;DHT22;1474;51.460;7.150;2023-09-12T03:48:05;20.60;84.90
2929;DHT22;1474;51.460;7.150;2023-09-12T03:55:44;20.60;85.40
2929;DHT22;1474;51.460;7.150;2023-09-12T04:04:03;20.50;86.00
2929;DHT22;1474;51.460;7.150;2023-09-12T04:16:26;20.50;85.20
2929;DHT22;1474;51.460;7.150;2023-09-12T04:20:27;20.40;85.60
2929;DHT22;1474;51.460;7.150;2023-09-12T04:24:39;20.40;85.10
2929;DHT22;1474;51.460;7.150;2023-09-12T04:32:52;20.50;85.20
2929;DHT22;1474;51.460;7.150;2023-09-12T04:45:13;20.40;85.40
2929;DHT22;1474;51.460;7.150;2023-09-12T04:49:48;20.30;85.00
2929;DHT22;1474;51.460;7.150;2023-09-12T05:06:37;20.30;85.00
2929;DHT22;1474;51.460;7.150;2023-09-12T05:09:29;20.40;84.60
2929;DHT22;1474;51.460;7.150;2023-09-12T05:11:55;20.40;84.30
2929;DHT22;1474;51.460;7.150;2023-09-12T05:14:20;20.30;84.40
2929;DHT22;1474;51.460;7.150;2023-09-12T05:16:46;20.40;84.40
2929;DHT22;1474;51.460;7.150;2023-09-12T05:19:12;20.40;83.50
2929;DHT22;1474;51.460;7.150;2023-09-12T05:21:38;20.40;83.50
2929;DHT22;1474;51.460;7.150;2023-09-12T05:24:04;20.30;83.60
2929;DHT22;1474;51.460;7.150;2023-09-12T05:26:30;20.30;83.50
2929;DHT22;1474;51.460;7.150;2023-09-12T05:28:56;20.30;83.10
2929;DHT22;1474;51.460;7.150;2023-09-12T05:31:22;20.30;83.20
2929;DHT22;1474;51.460;7.150;2023-09-12T05:33:48;20.30;83.50
2929;DHT22;1474;51.460;7.150;2023-09-12T05:36:14;20.20;82.80
2929;DHT22;1474;51.460;7.150;2023-09-12T05:38:40;20.10;83.00
2929;DHT22;1474;51.460;7.150;2023-09-12T05:41:06;20.10;84.40
2929;DHT22;1474;51.460;7.150;2023-09-12T05:43:31;20.10;85.50
2929;DHT22;1474;51.460;7.150;2023-09-12T05:45:57;20.10;85.60
2929;DHT22;1474;51.460;7.150;2023-09-12T05:48:23;20.20;85.90
2929;DHT22;1474;51.460;7.150;2023-09-12T05:50:49;20.20;85.60
2929;DHT22;1474;51.460;7.150;2023-09-12T05:53:15;20.20;85.30
2929;DHT22;1474;51.460;7.150;2023-09-12T05:55:40;20.20;85.30
2929;DHT22;1474;51.460;7.150;2023-09-12T05:58:06;20.10;85.70
2929;DHT22;1474;51.460;7.150;2023-09-12T06:00:33;20.20;86.90
2929;DHT22;1474;51.460;7.150;2023-09-12T06:02:58;20.20;86.60
2929;DHT22;1474;51.460;7.150;2023-09-12T06:05:24;20.20;86.80
2929;DHT22;1474;51.460;7.150;2023-09-12T06:07:50;20.10;87.30
2929;DHT22;1474;51.460;7.150;2023-09-12T06:10:16;20.20;87.60
2929;DHT22;1474;51.460;7.150;2023-09-12T06:12:42;20.30;87.60
2929;DHT22;1474;51.460;7.150;2023-09-12T06:15:08;20.30;87.50
2929;DHT22;1474;51.460;7.150;2023-09-12T06:17:34;20.40;86.90
2929;DHT22;1474;51.460;7.150;2023-09-12T06:20:00;20.50;86.80
2929;DHT22;1474;51.460;7.150;2023-09-12T06:22:26;20.50;86.90
2929;DHT22;1474;51.460;7.150;2023-09-12T06:24:52;20.60;87.20
2929;DHT22;1474;51.460;7.150;2023-09-12T06:27:18;20.60;87.30
2929;DHT22;1474;51.460;7.150;2023-09-12T06:29:48;20.60;87.60
2929;DHT22;1474;51.460;7.150;2023-09-12T06:32:15;20.50;88.20
2929;DHT22;1474;51.460;7.150;2023-09-12T06:34:43;20.50;88.50
2929;DHT22;1474;51.460;7.150;2023-09-12T06:37:11;20.40;88.20
2929;DHT22;1474;51.460;7.150;2023-09-12T06:39:37;20.30;88.50
2929;DHT22;1474;51.460;7.150;2023-09-12T06:42:03;20.10;88.80
2929;DHT22;1474;51.460;7.150;2023-09-12T06:44:29;20.00;89.40
2929;DHT22;1474;51.460;7.150;2023-09-12T06:46:55;19.90;90.00
2929;DHT22;1474;51.460;7.150;2023-09-12T06:49:20;19.80;89.50
2929;DHT22;1474;51.460;7.150;2023-09-12T06:51:46;19.70;90.70
2929;DHT22;1474;51.460;7.150;2023-09-12T06:54:15;19.70;91.10
2929;DHT22;1474;51.460;7.150;2023-09-12T06:56:41;19.70;91.20
2929;DHT22;1474;51.460;7.150;2023-09-12T06:59:08;19.70;90.90
2929;DHT22;1474;51.460;7.150;2023-09-12T07:01:34;19.70;91.10
2929;DHT22;1474;51.460;7.150;2023-09-12T07:04:00;19.80;91.00
2929;DHT22;1474;51.460;7.150;2023-09-12T07:06:29;19.90;91.00
2929;DHT22;1474;51.460;7.150;2023-09-12T07:09:12;19.90;91.10
2929;DHT22;1474;51.460;7.150;2023-09-12T07:11:45;19.90;91.00
2929;DHT22;1474;51.460;7.150;2023-09-12T07:14:36;20.00;90.90
2929;DHT22;1474;51.460;7.150;2023-09-12T07:17:05;20.00;90.80
2929;DHT22;1474;51.460;7.150;2023-09-12T07:19:34;20.00;90.40
2929;DHT22;1474;51.460;7.150;2023-09-12T07:22:28;19.70;90.80
2929;DHT22;1474;51.460;7.150;2023-09-12T07:25:02;19.50;91.50
2929;DHT22;1474;51.460;7.150;2023-09-12T07:27:29;19.50;91.80
2929;DHT22;1474;51.460;7.150;2023-09-12T07:29:55;19.60;91.70
2929;DHT22;1474;51.460;7.150;2023-09-12T07:32:21;19.60;91.70
2929;DHT22;1474;51.460;7.150;2023-09-12T07:35:37;19.70;91.80
2929;DHT22;1474;51.460;7.150;2023-09-12T07:38:11;19.90;91.80
2929;DHT22;1474;51.460;7.150;2023-09-12T07:40:53;19.90;91.10
2929;DHT22;1474;51.460;7.150;2023-09-12T07:43:25;19.80;91.20
2929;DHT22;1474;51.460;7.150;2023-09-12T07:45:59;19.90;91.40
2929;DHT22;1474;51.460;7.150;2023-09-12T07:48:26;20.00;91.40
2929;DHT22;1474;51.460;7.150;2023-09-12T07:50:54;20.00;90.60
2929;DHT22;1474;51.460;7.150;2023-09-12T07:53:20;20.00;90.50
2929;DHT22;1474;51.460;7.150;2023-09-12T07:55:51;19.90;90.60
2929;DHT22;1474;51.460;7.150;2023-09-12T07:58:22;19.90;90.50
2929;DHT22;1474;51.460;7.150;2023-09-12T08:00:48;19.90;90.40
2929;DHT22;1474;51.460;7.150;2023-09-12T08:03:16;20.00;91.00
2929;DHT22;1474;51.460;7.150;2023-09-12T08:05:43;20.00;90.90
2929;DHT22;1474;51.460;7.150;2023-09-12T08:08:20;20.10;90.90
2929;DHT22;1474;51.460;7.150;2023-09-12T08:10:49;20.10;90.70
2929;DHT22;1474;51.460;7.150;2023-09-12T08:13:19;20.10;91.20
2929;DHT22;1474;51.460;7.150;2023-09-12T08:15:50;20.10;90.60
2929;DHT22;1474;51.460;7.150;2023-09-12T08:18:16;20.00;91.10
2929;DHT22;1474;51.460;7.150;2023-09-12T08:20:45;20.00;90.50
2929;DHT22;1474;51.460;7.150;2023-09-12T08:23:18;20.00;90.90
2929;DHT22;1474;51.460;7.150;2023-09-12T08:25:43;20.10;91.00
2929;DHT22;1474;51.460;7.150;2023-09-12T08:28:15;20.20;91.20
2929;DHT22;1474;51.460;7.150;2023-09-12T08:30:45;20.20;90.80
2929;DHT22;1474;51.460;7.150;2023-09-12T08:33:13;20.30;91.00
2929;DHT22;1474;51.460;7.150;2023-09-12T08:35:40;20.40;91.00
2929;DHT22;1474;51.460;7.150;2023-09-12T08:38:06;20.50;90.60
2929;DHT22;1474;51.460;7.150;2023-09-12T08:40:38;20.50;90.40
2929;DHT22;1474;51.460;7.150;2023-09-12T08:43:10;20.70;90.70
2929;DHT22;1474;51.460;7.150;2023-09-12T08:45:39;20.80;90.60
2929;DHT22;1474;51.460;7.150;2023-09-12T08:48:05;20.80;90.30
2929;DHT22;1474;51.460;7.150;2023-09-12T08:50:38;20.90;90.40
2929;DHT22;1474;51.460;7.150;2023-09-12T08:53:05;21.00;89.90
2929;DHT22;1474;51.460;7.150;2023-09-12T08:55:31;21.00;90.00
2929;DHT22;1474;51.460;7.150;2023-09-12T08:57:59;21.00;89.30
2929;DHT22;1474;51.460;7.150;2023-09-12T09:00:27;21.00;88.90
2929;DHT22;1474;51.460;7.150;2023-09-12T09:02:57;20.90;86.80
2929;DHT22;1474;51.460;7.150;2023-09-12T09:05:24;20.80;88.20
2929;DHT22;1474;51.460;7.150;2023-09-12T13:58:24;26.60;62.70
2929;DHT22;1474;51.460;7.150;2023-09-12T14:02:11;26.50;62.10
2929;DHT22;1474;51.460;7.150;2023-09-12T14:13:43;27.20;64.00
2929;DHT22;1474;51.460;7.150;2023-09-12T15:15:39;27.80;61.20
2929;DHT22;1474;51.460;7.150;2023-09-12T15:18:06;27.70;60.90
2929;DHT22;1474;51.460;7.150;2023-09-12T15:20:32;27.70;61.40
2929;DHT22;1474;51.460;7.150;2023-09-12T15:22:58;27.60;62.10
2929;DHT22;1474;51.460;7.150;2023-09-12T15:25:24;27.60;61.40
2929;DHT22;1474;51.460;7.150;2023-09-12T15:27:51;27.50;62.80
2929;DHT22;1474;51.460;7.150;2023-09-12T15:30:17;27.60;62.70
2929;DHT22;1474;51.460;7.150;2023-09-12T15:32:43;27.50;63.00
2929;DHT22;1474;51.460;7.150;2023-09-12T15:35:12;27.50;62.50
2929;DHT22;1474;51.460;7.150;2023-09-12T15:37:38;27.30;61.90
2929;DHT22;1474;51.460;7.150;2023-09-12T15:40:05;27.20;62.70
2929;DHT22;1474;51.460;7.150;2023-09-12T15:42:34;27.10;63.60
2929;DHT22;1474;51.460;7.150;2023-09-12T15:45:01;27.10;64.50
2929;DHT22;1474;51.460;7.150;2023-09-12T15:47:27;27.00;64.00
2929;DHT22;1474;51.460;7.150;2023-09-12T15:49:53;27.00;64.50
2929;DHT22;1474;51.460;7.150;2023-09-12T15:52:19;27.00;64.50
2929;DHT22;1474;51.460;7.150;2023-09-12T15:54:46;27.00;65.30
2929;DHT22;1474;51.460;7.150;2023-09-12T15:57:12;26.90;64.60
2929;DHT22;1474;51.460;7.150;2023-09-12T15:59:39;26.80;63.40
2929;DHT22;1474;51.460;7.150;2023-09-12T16:02:05;26.80;64.30
2929;DHT22;1474;51.460;7.150;2023-09-12T16:04:31;26.70;63.20
2929;DHT22;1474;51.460;7.150;2023-09-12T16:06:57;26.60;64.20
2929;DHT22;1474;51.460;7.150;2023-09-12T16:09:23;26.60;65.70
2929;DHT22;1474;51.460;7.150;2023-09-12T16:11:49;26.60;66.10
2929;DHT22;1474;51.460;7.150;2023-09-12T16:14:16;26.60;66.70
2929;DHT22;1474;51.460;7.150;2023-09-12T16:16:42;26.50;65.30
2929;DHT22;1474;51.460;7.150;2023-09-12T16:19:08;26.50;66.10
2929;DHT22;1474;51.460;7.150;2023-09-12T16:21:37;26.50;65.30
2929;DHT22;1474;51.460;7.150;2023-09-12T16:24:04;26.30;66.80
2929;DHT22;1474;51.460;7.150;2023-09-12T16:26:30;26.20;66.10
2929;DHT22;1474;51.460;7.150;2023-09-12T16:28:56;26.20;65.70
2929;DHT22;1474;51.460;7.150;2023-09-12T16:31:22;26.00;66.00
2929;DHT22;1474;51.460;7.150;2023-09-12T16:33:48;25.70;66.60
2929;DHT22;1474;51.460;7.150;2023-09-12T16:36:14;25.70;67.50
2929;DHT22;1474;51.460;7.150;2023-09-12T16:38:40;25.80;67.10
2929;DHT22;1474;51.460;7.150;2023-09-12T16:41:06;25.50;66.60
2929;DHT22;1474;51.460;7.150;2023-09-12T16:43:32;25.50;67.60
2929;DHT22;1474;51.460;7.150;2023-09-12T16:45:58;25.50;67.80
2929;DHT22;1474;51.460;7.150;2023-09-12T16:48:24;25.30;68.20
2929;DHT22;1474;51.460;7.150;2023-09-12T16:50:50;25.20;68.90
2929;DHT22;1474;51.460;7.150;2023-09-12T16:53:17;25.20;69.60
2929;DHT22;1474;51.460;7.150;2023-09-12T16:55:43;25.30;70.50
2929;DHT22;1474;51.460;7.150;2023-09-12T16:58:09;25.30;69.80
2929;DHT22;1474;51.460;7.150;2023-09-12T17:00:36;25.20;69.30
2929;DHT22;1474;51.460;7.150;2023-09-12T17:03:02;25.00;70.30
2929;DHT22;1474;51.460;7.150;2023-09-12T17:05:28;25.00;70.80
2929;DHT22;1474;51.460;7.150;2023-09-12T17:07:54;25.00;70.40
2929;DHT22;1474;51.460;7.150;2023-09-12T17:10:20;25.00;70.60
2929;DHT22;1474;51.460;7.150;2023-09-12T17:12:46;24.90;70.90
2929;DHT22;1474;51.460;7.150;2023-09-12T17:15:16;24.80;71.40
2929;DHT22;1474;51.460;7.150;2023-09-12T17:17:44;24.70;71.60
2929;DHT22;1474;51.460;7.150;2023-09-12T17:20:11;24.70;72.10
2929;DHT22;1474;51.460;7.150;2023-09-12T17:22:39;24.80;72.40
2929;DHT22;1474;51.460;7.150;2023-09-12T17:25:06;24.90;72.20
2929;DHT22;1474;51.460;7.150;2023-09-12T17:27:33;24.80;71.20
2929;DHT22;1474;51.460;7.150;2023-09-12T17:29:59;24.80;71.50
2929;DHT22;1474;51.460;7.150;2023-09-12T17:32:25;24.80;72.10
2929;DHT22;1474;51.460;7.150;2023-09-12T17:34:53;24.90;71.40
2929;DHT22;1474;51.460;7.150;2023-09-12T17:37:21;24.80;71.90
2929;DHT22;1474;51.460;7.150;2023-09-12T17:39:50;24.90;72.10
2929;DHT22;1474;51.460;7.150;2023-09-12T17:42:16;24.90;71.40
2929;DHT22;1474;51.460;7.150;2023-09-12T17:44:43;24.90;71.20
2929;DHT22;1474;51.460;7.150;2023-09-12T17:47:09;24.70;72.00
2929;DHT22;1474;51.460;7.150;2023-09-12T17:49:35;24.70;72.50
2929;DHT22;1474;51.460;7.150;2023-09-12T17:52:01;24.60;72.30
2929;DHT22;1474;51.460;7.150;2023-09-12T17:54:28;24.40;72.70
2929;DHT22;1474;51.460;7.150;2023-09-12T17:56:54;24.40;73.00
2929;DHT22;1474;51.460;7.150;2023-09-12T17:59:20;24.40;73.30
2929;DHT22;1474;51.460;7.150;2023-09-12T18:01:46;24.40;73.80
2929;DHT22;1474;51.460;7.150;2023-09-12T18:04:12;24.40;73.80
2929;DHT22;1474;51.460;7.150;2023-09-12T18:06:40;24.40;73.30
2929;DHT22;1474;51.460;7.150;2023-09-12T18:09:06;24.40;73.50
2929;DHT22;1474;51.460;7.150;2023-09-12T18:11:32;24.40;73.30
2929;DHT22;1474;51.460;7.150;2023-09-12T18:13:58;24.30;73.90
2929;DHT22;1474;51.460;7.150;2023-09-12T18:16:24;24.10;74.40
2929;DHT22;1474;51.460;7.150;2023-09-12T18:18:50;24.00;74.90
2929;DHT22;1474;51.460;7.150;2023-09-12T18:21:19;24.10;75.00
2929;DHT22;1474;51.460;7.150;2023-09-12T18:24:03;24.20;75.10
2929;DHT22;1474;51.460;7.150;2023-09-12T18:28:40;24.20;75.10
2929;DHT22;1474;51.460;7.150;2023-09-12T18:32:00;24.20;75.50
